sensor_id;sensor_type;location;lat;lon;timestamp;P1;durP1;ratioP1;P2;durP2;ratioP2
39822;SDS011;25499;53.958;10.970;2023-05-29T05:56:51;14.05;;;2.58;;
39822;SDS011;25499;53.958;10.970;2023-05-29T05:59:18;17.10;;;2.50;;
39822;SDS011;25499;53.958;10.970;2023-05-29T06:01:45;16.55;;;3.00;;
39822;SDS011;25499;53.958;10.970;2023-05-29T06:04:12;14.90;;;2.40;;
39822;SDS011;25499;53.958;10.970;2023-05-29T06:06:39;14.73;;;2.53;;
39822;SDS011;25499;53.958;10.970;2023-05-29T06:09:06;14.98;;;2.35;;
39822;SDS011;25499;53.958;10.970;2023-05-29T06:11:34;17.75;;;3.00;;
39822;SDS011;25499;53.958;10.970;2023-05-29T06:14:02;19.92;;;2.72;;
39822;SDS011;25499;53.958;10.970;2023-05-29T06:16:29;19.98;;;2.60;;
39822;SDS011;25499;53.958;10.970;2023-05-29T06:18:55;15.82;;;2.55;;
39822;SDS011;25499;53.958;10.970;2023-05-29T06:21:22;15.20;;;3.05;;
39822;SDS011;25499;53.958;10.970;2023-05-29T06:23:49;14.73;;;2.75;;
39822;SDS011;25499;53.958;10.970;2023-05-29T06:26:16;18.88;;;2.53;;
39822;SDS011;25499;53.958;10.970;2023-05-29T06:28:44;11.00;;;2.45;;
39822;SDS011;25499;53.958;10.970;2023-05-29T06:31:12;15.38;;;2.63;;
39822;SDS011;25499;53.958;10.970;2023-05-29T06:33:39;13.25;;;2.45;;
39822;SDS011;25499;53.958;10.970;2023-05-29T06:36:06;16.30;;;2.80;;
39822;SDS011;25499;53.958;10.970;2023-05-29T06:38:33;13.85;;;2.40;;
39822;SDS011;25499;53.958;10.970;2023-05-29T06:40:59;14.55;;;2.53;;
39822;SDS011;25499;53.958;10.970;2023-05-29T06:43:26;16.45;;;3.00;;
39822;SDS011;25499;53.958;10.970;2023-05-29T06:45:54;14.88;;;2.55;;
39822;SDS011;25499;53.958;10.970;2023-05-29T06:48:22;14.15;;;2.70;;
39822;SDS011;25499;53.958;10.970;2023-05-29T06:50:49;11.52;;;2.83;;
39822;SDS011;25499;53.958;10.970;2023-05-29T06:53:15;14.85;;;2.35;;
39822;SDS011;25499;53.958;10.970;2023-05-29T06:55:42;11.80;;;2.72;;
39822;SDS011;25499;53.958;10.970;2023-05-29T06:58:09;11.98;;;2.63;;
39822;SDS011;25499;53.958;10.970;2023-05-29T07:00:36;12.95;;;2.60;;
39822;SDS011;25499;53.958;10.970;2023-05-29T07:03:02;16.63;;;2.78;;
39822;SDS011;25499;53.958;10.970;2023-05-29T07:05:30;13.30;;;2.20;;
39822;SDS011;25499;53.958;10.970;2023-05-29T07:07:57;13.20;;;2.58;;
39822;SDS011;25499;53.958;10.970;2023-05-29T07:10:24;13.00;;;2.60;;
39822;SDS011;25499;53.958;10.970;2023-05-29T07:12:51;11.98;;;2.72;;
39822;SDS011;25499;53.958;10.970;2023-05-29T07:15:18;14.25;;;2.72;;
39822;SDS011;25499;53.958;10.970;2023-05-29T07:17:45;11.65;;;2.70;;
39822;SDS011;25499;53.958;10.970;2023-05-29T07:20:13;14.20;;;2.65;;
39822;SDS011;25499;53.958;10.970;2023-05-29T07:22:42;18.08;;;3.00;;
39822;SDS011;25499;53.958;10.970;2023-05-29T07:25:09;13.18;;;2.40;;
39822;SDS011;25499;53.958;10.970;2023-05-29T07:27:36;15.38;;;3.00;;
39822;SDS011;25499;53.958;10.970;2023-05-29T07:30:03;15.07;;;2.45;;
39822;SDS011;25499;53.958;10.970;2023-05-29T07:32:31;15.73;;;2.72;;
39822;SDS011;25499;53.958;10.970;2023-05-29T07:34:58;15.65;;;2.60;;
39822;SDS011;25499;53.958;10.970;2023-05-29T07:37:25;16.83;;;2.80;;
39822;SDS011;25499;53.958;10.970;2023-05-29T07:39:53;13.30;;;2.55;;
39822;SDS011;25499;53.958;10.970;2023-05-29T07:42:20;15.13;;;2.92;;
39822;SDS011;25499;53.958;10.970;2023-05-29T07:44:47;18.60;;;2.95;;
39822;SDS011;25499;53.958;10.970;2023-05-29T07:47:14;14.90;;;2.40;;
39822;SDS011;25499;53.958;10.970;2023-05-29T07:49:41;13.73;;;2.78;;
39822;SDS011;25499;53.958;10.970;2023-05-29T07:52:08;14.60;;;2.75;;
39822;SDS011;25499;53.958;10.970;2023-05-29T07:54:35;9.10;;;2.40;;
39822;SDS011;25499;53.958;10.970;2023-05-29T07:57:04;10.88;;;2.47;;
39822;SDS011;25499;53.958;10.970;2023-05-29T07:59:37;17.92;;;2.70;;
39822;SDS011;25499;53.958;10.970;2023-05-29T08:02:05;11.30;;;2.42;;
39822;SDS011;25499;53.958;10.970;2023-05-29T08:04:32;14.55;;;2.30;;
39822;SDS011;25499;53.958;10.970;2023-05-29T08:06:59;8.65;;;1.92;;
39822;SDS011;25499;53.958;10.970;2023-05-29T08:09:28;17.27;;;2.85;;
39822;SDS011;25499;53.958;10.970;2023-05-29T08:11:55;13.88;;;2.22;;
39822;SDS011;25499;53.958;10.970;2023-05-29T08:14:23;9.93;;;2.40;;
39822;SDS011;25499;53.958;10.970;2023-05-29T08:16:51;10.73;;;2.47;;
39822;SDS011;25499;53.958;10.970;2023-05-29T08:19:18;10.15;;;2.33;;
39822;SDS011;25499;53.958;10.970;2023-05-29T08:21:45;12.57;;;2.03;;
39822;SDS011;25499;53.958;10.970;2023-05-29T08:24:12;11.20;;;2.20;;
39822;SDS011;25499;53.958;10.970;2023-05-29T08:26:39;7.88;;;2.20;;
39822;SDS011;25499;53.958;10.970;2023-05-29T08:29:06;7.57;;;1.98;;
39822;SDS011;25499;53.958;10.970;2023-05-29T08:31:34;11.32;;;2.15;;
39822;SDS011;25499;53.958;10.970;2023-05-29T08:34:02;11.13;;;2.30;;
39822;SDS011;25499;53.958;10.970;2023-05-29T08:36:29;11.00;;;2.33;;
39822;SDS011;25499;53.958;10.970;2023-05-29T08:38:56;14.98;;;2.90;;
39822;SDS011;25499;53.958;10.970;2023-05-29T08:41:25;13.38;;;2.53;;
39822;SDS011;25499;53.958;10.970;2023-05-29T08:46:25;13.10;;;2.50;;
39822;SDS011;25499;53.958;10.970;2023-05-29T08:48:54;11.93;;;2.53;;
39822;SDS011;25499;53.958;10.970;2023-05-29T08:51:25;12.15;;;2.33;;
39822;SDS011;25499;53.958;10.970;2023-05-29T08:53:56;9.77;;;2.30;;
39822;SDS011;25499;53.958;10.970;2023-05-29T08:56:23;11.40;;;2.67;;
39822;SDS011;25499;53.958;10.970;2023-05-29T08:58:51;9.82;;;2.50;;
39822;SDS011;25499;53.958;10.970;2023-05-29T09:04:32;12.77;;;2.50;;
39822;SDS011;25499;53.958;10.970;2023-05-29T09:06:59;14.57;;;2.70;;
39822;SDS011;25499;53.958;10.970;2023-05-29T09:09:30;10.68;;;2.30;;
39822;SDS011;25499;53.958;10.970;2023-05-29T09:11:58;10.90;;;2.40;;
39822;SDS011;25499;53.958;10.970;2023-05-29T09:14:32;10.50;;;2.40;;
39822;SDS011;25499;53.958;10.970;2023-05-29T09:17:00;12.13;;;2.78;;
39822;SDS011;25499;53.958;10.970;2023-05-29T09:19:27;10.98;;;2.33;;
39822;SDS011;25499;53.958;10.970;2023-05-29T09:22:01;14.10;;;2.60;;
39822;SDS011;25499;53.958;10.970;2023-05-29T09:24:29;10.30;;;2.30;;
39822;SDS011;25499;53.958;10.970;2023-05-29T09:26:58;13.60;;;2.42;;
39822;SDS011;25499;53.958;10.970;2023-05-29T09:29:26;13.10;;;3.08;;
39822;SDS011;25499;53.958;10.970;2023-05-29T09:31:53;10.55;;;2.33;;
39822;SDS011;25499;53.958;10.970;2023-05-29T09:34:21;10.52;;;2.40;;
39822;SDS011;25499;53.958;10.970;2023-05-29T09:36:49;9.77;;;2.35;;
39822;SDS011;25499;53.958;10.970;2023-05-29T09:39:18;14.50;;;2.38;;
39822;SDS011;25499;53.958;10.970;2023-05-29T09:41:45;11.15;;;2.55;;
39822;SDS011;25499;53.958;10.970;2023-05-29T09:44:13;11.82;;;2.42;;
39822;SDS011;25499;53.958;10.970;2023-05-29T09:46:43;14.82;;;2.63;;
39822;SDS011;25499;53.958;10.970;2023-05-29T09:49:11;8.93;;;2.03;;
39822;SDS011;25499;53.958;10.970;2023-05-29T09:51:38;12.07;;;2.30;;
39822;SDS011;25499;53.958;10.970;2023-05-29T09:54:14;9.70;;;2.05;;
39822;SDS011;25499;53.958;10.970;2023-05-29T09:56:43;12.88;;;2.20;;
39822;SDS011;25499;53.958;10.970;2023-05-29T09:59:11;9.43;;;2.47;;
39822;SDS011;25499;53.958;10.970;2023-05-29T10:01:39;10.52;;;2.17;;
39822;SDS011;25499;53.958;10.970;2023-05-29T10:04:07;11.07;;;2.67;;
39822;SDS011;25499;53.958;10.970;2023-05-29T10:06:35;18.00;;;2.60;;
39822;SDS011;25499;53.958;10.970;2023-05-29T10:09:05;8.90;;;2.10;;
39822;SDS011;25499;53.958;10.970;2023-05-29T10:11:37;12.40;;;2.35;;
39822;SDS011;25499;53.958;10.970;2023-05-29T10:14:06;10.13;;;2.28;;
39822;SDS011;25499;53.958;10.970;2023-05-29T10:16:36;9.13;;;2.03;;
39822;SDS011;25499;53.958;10.970;2023-05-29T10:19:09;12.25;;;2.33;;
39822;SDS011;25499;53.958;10.970;2023-05-29T10:21:40;11.25;;;2.08;;
39822;SDS011;25499;53.958;10.970;2023-05-29T10:26:38;10.80;;;2.28;;
39822;SDS011;25499;53.958;10.970;2023-05-29T10:29:13;11.18;;;3.13;;
39822;SDS011;25499;53.958;10.970;2023-05-29T10:31:50;10.95;;;2.60;;
39822;SDS011;25499;53.958;10.970;2023-05-29T10:34:31;8.00;;;2.25;;
39822;SDS011;25499;53.958;10.970;2023-05-29T10:37:06;5.32;;;1.85;;
39822;SDS011;25499;53.958;10.970;2023-05-29T10:39:40;8.43;;;2.05;;
39822;SDS011;25499;53.958;10.970;2023-05-29T10:45:09;7.28;;;1.30;;
39822;SDS011;25499;53.958;10.970;2023-05-29T10:47:39;6.85;;;1.40;;
39822;SDS011;25499;53.958;10.970;2023-05-29T10:50:35;6.35;;;1.80;;
39822;SDS011;25499;53.958;10.970;2023-05-29T10:53:03;7.07;;;1.60;;
39822;SDS011;25499;53.958;10.970;2023-05-29T10:55:35;6.20;;;1.70;;
39822;SDS011;25499;53.958;10.970;2023-05-29T10:58:04;5.78;;;1.42;;
39822;SDS011;25499;53.958;10.970;2023-05-29T11:00:34;6.95;;;1.60;;
39822;SDS011;25499;53.958;10.970;2023-05-29T11:03:07;4.07;;;1.23;;
39822;SDS011;25499;53.958;10.970;2023-05-29T11:05:34;3.20;;;1.35;;
39822;SDS011;25499;53.958;10.970;2023-05-29T11:08:02;6.95;;;1.55;;
39822;SDS011;25499;53.958;10.970;2023-05-29T11:10:42;6.07;;;1.65;;
39822;SDS011;25499;53.958;10.970;2023-05-29T11:13:22;5.70;;;1.40;;
39822;SDS011;25499;53.958;10.970;2023-05-29T11:16:05;4.00;;;1.50;;
39822;SDS011;25499;53.958;10.970;2023-05-29T11:18:38;4.75;;;1.30;;
39822;SDS011;25499;53.958;10.970;2023-05-29T11:21:08;5.22;;;1.38;;
39822;SDS011;25499;53.958;10.970;2023-05-29T11:23:47;6.28;;;1.48;;
39822;SDS011;25499;53.958;10.970;2023-05-29T11:26:17;2.15;;;1.10;;
39822;SDS011;25499;53.958;10.970;2023-05-29T11:28:44;4.57;;;1.27;;
39822;SDS011;25499;53.958;10.970;2023-05-29T11:31:12;6.07;;;1.40;;
39822;SDS011;25499;53.958;10.970;2023-05-29T11:33:40;6.60;;;1.20;;
39822;SDS011;25499;53.958;10.970;2023-05-29T11:36:11;4.05;;;1.30;;
39822;SDS011;25499;53.958;10.970;2023-05-29T11:38:38;5.13;;;1.38;;
39822;SDS011;25499;53.958;10.970;2023-05-29T11:41:05;3.53;;;0.85;;
39822;SDS011;25499;53.958;10.970;2023-05-29T11:43:32;6.68;;;1.30;;
39822;SDS011;25499;53.958;10.970;2023-05-29T11:45:59;5.05;;;1.45;;
39822;SDS011;25499;53.958;10.970;2023-05-29T11:48:27;3.28;;;1.30;;
39822;SDS011;25499;53.958;10.970;2023-05-29T11:50:54;7.90;;;1.17;;
39822;SDS011;25499;53.958;10.970;2023-05-29T11:53:21;4.03;;;1.08;;
39822;SDS011;25499;53.958;10.970;2023-05-29T11:55:48;3.58;;;1.10;;
39822;SDS011;25499;53.958;10.970;2023-05-29T11:58:15;3.15;;;0.95;;
39822;SDS011;25499;53.958;10.970;2023-05-29T12:00:42;6.68;;;1.20;;
39822;SDS011;25499;53.958;10.970;2023-05-29T12:03:10;4.50;;;1.48;;
39822;SDS011;25499;53.958;10.970;2023-05-29T12:05:45;3.80;;;1.08;;
39822;SDS011;25499;53.958;10.970;2023-05-29T12:08:13;2.17;;;0.80;;
39822;SDS011;25499;53.958;10.970;2023-05-29T12:10:46;5.63;;;1.10;;
39822;SDS011;25499;53.958;10.970;2023-05-29T12:13:13;5.32;;;0.85;;
39822;SDS011;25499;53.958;10.970;2023-05-29T12:15:42;1.90;;;1.00;;
39822;SDS011;25499;53.958;10.970;2023-05-29T12:18:09;3.65;;;1.02;;
39822;SDS011;25499;53.958;10.970;2023-05-29T12:20:36;4.60;;;0.82;;
39822;SDS011;25499;53.958;10.970;2023-05-29T12:23:05;2.35;;;1.02;;
39822;SDS011;25499;53.958;10.970;2023-05-29T12:25:35;2.70;;;0.98;;
39822;SDS011;25499;53.958;10.970;2023-05-29T12:28:03;5.38;;;1.00;;
39822;SDS011;25499;53.958;10.970;2023-05-29T12:30:30;4.43;;;1.00;;
39822;SDS011;25499;53.958;10.970;2023-05-29T12:32:57;4.05;;;1.10;;
39822;SDS011;25499;53.958;10.970;2023-05-29T12:35:25;4.47;;;1.00;;
39822;SDS011;25499;53.958;10.970;2023-05-29T12:37:55;2.35;;;1.00;;
39822;SDS011;25499;53.958;10.970;2023-05-29T12:40:25;3.22;;;1.02;;
39822;SDS011;25499;53.958;10.970;2023-05-29T12:42:54;2.65;;;0.85;;
39822;SDS011;25499;53.958;10.970;2023-05-29T12:45:24;11.65;;;1.63;;
39822;SDS011;25499;53.958;10.970;2023-05-29T12:47:52;2.35;;;0.90;;
39822;SDS011;25499;53.958;10.970;2023-05-29T12:50:21;4.13;;;1.17;;
39822;SDS011;25499;53.958;10.970;2023-05-29T12:55:28;3.22;;;0.95;;
39822;SDS011;25499;53.958;10.970;2023-05-29T12:57:58;4.97;;;0.88;;
39822;SDS011;25499;53.958;10.970;2023-05-29T13:00:25;3.63;;;1.23;;
39822;SDS011;25499;53.958;10.970;2023-05-29T13:02:52;4.13;;;1.20;;
39822;SDS011;25499;53.958;10.970;2023-05-29T13:05:19;7.68;;;1.00;;
39822;SDS011;25499;53.958;10.970;2023-05-29T13:07:48;2.97;;;1.00;;
39822;SDS011;25499;53.958;10.970;2023-05-29T13:10:15;2.88;;;0.77;;
39822;SDS011;25499;53.958;10.970;2023-05-29T13:12:43;5.50;;;1.00;;
39822;SDS011;25499;53.958;10.970;2023-05-29T13:15:12;2.33;;;0.88;;
39822;SDS011;25499;53.958;10.970;2023-05-29T13:17:40;4.07;;;1.10;;
39822;SDS011;25499;53.958;10.970;2023-05-29T13:23:28;2.25;;;1.02;;
39822;SDS011;25499;53.958;10.970;2023-05-29T13:25:55;5.28;;;1.20;;
39822;SDS011;25499;53.958;10.970;2023-05-29T13:28:23;1.90;;;0.90;;
39822;SDS011;25499;53.958;10.970;2023-05-29T13:30:51;3.72;;;1.30;;
39822;SDS011;25499;53.958;10.970;2023-05-29T13:33:18;1.92;;;0.88;;
39822;SDS011;25499;53.958;10.970;2023-05-29T13:35:45;1.85;;;0.80;;
39822;SDS011;25499;53.958;10.970;2023-05-29T13:38:13;2.17;;;0.90;;
39822;SDS011;25499;53.958;10.970;2023-05-29T13:40:40;3.38;;;1.15;;
39822;SDS011;25499;53.958;10.970;2023-05-29T13:43:06;3.60;;;1.08;;
39822;SDS011;25499;53.958;10.970;2023-05-29T13:45:36;2.88;;;0.93;;
39822;SDS011;25499;53.958;10.970;2023-05-29T13:48:03;4.05;;;1.10;;
39822;SDS011;25499;53.958;10.970;2023-05-29T13:50:30;2.85;;;1.23;;
39822;SDS011;25499;53.958;10.970;2023-05-29T13:52:59;3.85;;;0.95;;
39822;SDS011;25499;53.958;10.970;2023-05-29T13:55:28;3.15;;;0.88;;
39822;SDS011;25499;53.958;10.970;2023-05-29T13:57:56;2.60;;;1.00;;
39822;SDS011;25499;53.958;10.970;2023-05-29T14:00:24;3.53;;;0.80;;
39822;SDS011;25499;53.958;10.970;2023-05-29T14:02:54;3.38;;;1.30;;
39822;SDS011;25499;53.958;10.970;2023-05-29T14:05:21;3.75;;;1.00;;
39822;SDS011;25499;53.958;10.970;2023-05-29T14:07:47;4.13;;;1.00;;
39822;SDS011;25499;53.958;10.970;2023-05-29T14:10:14;3.00;;;1.00;;
39822;SDS011;25499;53.958;10.970;2023-05-29T14:12:41;3.65;;;1.17;;
39822;SDS011;25499;53.958;10.970;2023-05-29T14:15:08;2.83;;;0.75;;
39822;SDS011;25499;53.958;10.970;2023-05-29T14:17:36;3.15;;;1.00;;
39822;SDS011;25499;53.958;10.970;2023-05-29T14:20:05;3.55;;;1.10;;
39822;SDS011;25499;53.958;10.970;2023-05-29T14:22:33;3.70;;;1.38;;
39822;SDS011;25499;53.958;10.970;2023-05-29T14:25:02;2.90;;;1.10;;
39822;SDS011;25499;53.958;10.970;2023-05-29T14:27:29;4.05;;;1.08;;
39822;SDS011;25499;53.958;10.970;2023-05-29T14:29:56;3.88;;;0.90;;
39822;SDS011;25499;53.958;10.970;2023-05-29T14:32:23;1.92;;;0.90;;
39822;SDS011;25499;53.958;10.970;2023-05-29T14:34:50;1.42;;;0.75;;
39822;SDS011;25499;53.958;10.970;2023-05-29T14:37:19;3.28;;;1.05;;
39822;SDS011;25499;53.958;10.970;2023-05-29T14:39:45;3.78;;;0.80;;
39822;SDS011;25499;53.958;10.970;2023-05-29T14:42:12;5.80;;;1.10;;
39822;SDS011;25499;53.958;10.970;2023-05-29T14:44:40;3.83;;;1.05;;
39822;SDS011;25499;53.958;10.970;2023-05-29T14:47:07;2.97;;;0.93;;
39822;SDS011;25499;53.958;10.970;2023-05-29T14:49:35;3.67;;;1.35;;
39822;SDS011;25499;53.958;10.970;2023-05-29T14:52:03;2.10;;;0.90;;
39822;SDS011;25499;53.958;10.970;2023-05-29T14:54:31;2.50;;;1.00;;
39822;SDS011;25499;53.958;10.970;2023-05-29T14:56:58;3.40;;;1.00;;
39822;SDS011;25499;53.958;10.970;2023-05-29T14:59:25;4.97;;;1.20;;
39822;SDS011;25499;53.958;10.970;2023-05-29T15:01:52;4.20;;;1.00;;
39822;SDS011;25499;53.958;10.970;2023-05-29T15:04:19;5.10;;;1.30;;
39822;SDS011;25499;53.958;10.970;2023-05-29T15:06:46;4.03;;;1.00;;
39822;SDS011;25499;53.958;10.970;2023-05-29T15:09:21;5.25;;;1.30;;
39822;SDS011;25499;53.958;10.970;2023-05-29T15:11:49;3.75;;;1.02;;
39822;SDS011;25499;53.958;10.970;2023-05-29T15:14:16;3.58;;;1.10;;
39822;SDS011;25499;53.958;10.970;2023-05-29T15:16:44;3.13;;;0.88;;
39822;SDS011;25499;53.958;10.970;2023-05-29T15:19:14;2.42;;;0.90;;
39822;SDS011;25499;53.958;10.970;2023-05-29T15:21:41;3.80;;;1.00;;
39822;SDS011;25499;53.958;10.970;2023-05-29T15:24:08;3.15;;;1.20;;
39822;SDS011;25499;53.958;10.970;2023-05-29T15:26:35;2.30;;;1.02;;
39822;SDS011;25499;53.958;10.970;2023-05-29T15:29:03;3.65;;;0.98;;
39822;SDS011;25499;53.958;10.970;2023-05-29T15:31:36;2.35;;;0.80;;
39822;SDS011;25499;53.958;10.970;2023-05-29T15:34:03;4.88;;;1.20;;
39822;SDS011;25499;53.958;10.970;2023-05-29T15:36:30;6.97;;;0.98;;
39822;SDS011;25499;53.958;10.970;2023-05-29T15:38:57;3.67;;;1.45;;
39822;SDS011;25499;53.958;10.970;2023-05-29T15:41:25;6.07;;;1.40;;
39822;SDS011;25499;53.958;10.970;2023-05-29T15:43:56;6.45;;;1.40;;
39822;SDS011;25499;53.958;10.970;2023-05-29T15:46:25;3.63;;;1.38;;
39822;SDS011;25499;53.958;10.970;2023-05-29T15:48:53;6.20;;;1.60;;
39822;SDS011;25499;53.958;10.970;2023-05-29T15:51:20;6.63;;;1.05;;
39822;SDS011;25499;53.958;10.970;2023-05-29T15:53:47;6.20;;;1.50;;
39822;SDS011;25499;53.958;10.970;2023-05-29T15:56:15;5.32;;;1.42;;
39822;SDS011;25499;53.958;10.970;2023-05-29T15:58:42;3.83;;;1.30;;
39822;SDS011;25499;53.958;10.970;2023-05-29T16:01:09;6.55;;;1.40;;
39822;SDS011;25499;53.958;10.970;2023-05-29T16:03:37;6.22;;;1.10;;
39822;SDS011;25499;53.958;10.970;2023-05-29T16:06:04;5.63;;;1.42;;
39822;SDS011;25499;53.958;10.970;2023-05-29T16:08:31;3.05;;;1.10;;
39822;SDS011;25499;53.958;10.970;2023-05-29T16:10:58;4.13;;;1.23;;
39822;SDS011;25499;53.958;10.970;2023-05-29T16:13:26;5.18;;;1.42;;
39822;SDS011;25499;53.958;10.970;2023-05-29T16:15:55;4.93;;;1.20;;
39822;SDS011;25499;53.958;10.970;2023-05-29T16:18:22;4.65;;;1.50;;
39822;SDS011;25499;53.958;10.970;2023-05-29T16:20:50;6.68;;;1.30;;
39822;SDS011;25499;53.958;10.970;2023-05-29T16:25:46;4.95;;;1.00;;
39822;SDS011;25499;53.958;10.970;2023-05-29T16:28:13;4.60;;;0.85;;
39822;SDS011;25499;53.958;10.970;2023-05-29T16:30:42;5.25;;;1.20;;
39822;SDS011;25499;53.958;10.970;2023-05-29T16:33:09;4.15;;;1.40;;
39822;SDS011;25499;53.958;10.970;2023-05-29T16:35:37;4.90;;;1.20;;
39822;SDS011;25499;53.958;10.970;2023-05-29T16:38:05;2.83;;;1.10;;
39822;SDS011;25499;53.958;10.970;2023-05-29T16:40:33;4.57;;;0.95;;
39822;SDS011;25499;53.958;10.970;2023-05-29T16:43:00;3.83;;;1.08;;
39822;SDS011;25499;53.958;10.970;2023-05-29T16:45:26;5.50;;;1.23;;
39822;SDS011;25499;53.958;10.970;2023-05-29T16:47:53;3.20;;;1.08;;
39822;SDS011;25499;53.958;10.970;2023-05-29T16:50:20;3.45;;;1.10;;
39822;SDS011;25499;53.958;10.970;2023-05-29T16:52:47;4.70;;;1.10;;
39822;SDS011;25499;53.958;10.970;2023-05-29T16:55:16;7.35;;;1.25;;
39822;SDS011;25499;53.958;10.970;2023-05-29T16:57:44;6.88;;;1.17;;
39822;SDS011;25499;53.958;10.970;2023-05-29T17:00:11;3.20;;;1.20;;
39822;SDS011;25499;53.958;10.970;2023-05-29T17:02:39;4.28;;;1.15;;
39822;SDS011;25499;53.958;10.970;2023-05-29T17:05:06;8.18;;;0.95;;
39822;SDS011;25499;53.958;10.970;2023-05-29T17:07:34;6.38;;;1.08;;
39822;SDS011;25499;53.958;10.970;2023-05-29T17:10:01;4.90;;;0.90;;
39822;SDS011;25499;53.958;10.970;2023-05-29T17:12:33;2.30;;;0.85;;
39822;SDS011;25499;53.958;10.970;2023-05-29T17:15:00;4.93;;;0.80;;
39822;SDS011;25499;53.958;10.970;2023-05-29T17:17:27;4.82;;;1.00;;
39822;SDS011;25499;53.958;10.970;2023-05-29T17:19:53;3.03;;;0.88;;
39822;SDS011;25499;53.958;10.970;2023-05-29T17:22:20;2.95;;;1.15;;
39822;SDS011;25499;53.958;10.970;2023-05-29T17:24:48;3.53;;;1.10;;
39822;SDS011;25499;53.958;10.970;2023-05-29T17:27:16;6.00;;;1.08;;
39822;SDS011;25499;53.958;10.970;2023-05-29T17:29:44;3.13;;;1.55;;
39822;SDS011;25499;53.958;10.970;2023-05-29T17:32:10;4.90;;;1.80;;
39822;SDS011;25499;53.958;10.970;2023-05-29T17:34:37;2.47;;;1.15;;
39822;SDS011;25499;53.958;10.970;2023-05-29T17:37:04;2.45;;;0.90;;
39822;SDS011;25499;53.958;10.970;2023-05-29T17:39:31;2.83;;;0.98;;
39822;SDS011;25499;53.958;10.970;2023-05-29T17:41:58;3.65;;;0.85;;
39822;SDS011;25499;53.958;10.970;2023-05-29T17:44:25;1.77;;;0.90;;
39822;SDS011;25499;53.958;10.970;2023-05-29T17:47:01;3.40;;;0.90;;
39822;SDS011;25499;53.958;10.970;2023-05-29T17:49:28;2.17;;;0.70;;
39822;SDS011;25499;53.958;10.970;2023-05-29T17:51:55;2.90;;;0.80;;
39822;SDS011;25499;53.958;10.970;2023-05-29T17:54:23;2.40;;;0.90;;
39822;SDS011;25499;53.958;10.970;2023-05-29T17:56:51;2.03;;;0.85;;
39822;SDS011;25499;53.958;10.970;2023-05-29T17:59:18;2.03;;;0.90;;
39822;SDS011;25499;53.958;10.970;2023-05-29T18:01:45;3.85;;;0.80;;
39822;SDS011;25499;53.958;10.970;2023-05-29T18:04:13;2.75;;;0.90;;
39822;SDS011;25499;53.958;10.970;2023-05-29T18:06:40;1.67;;;0.80;;
39822;SDS011;25499;53.958;10.970;2023-05-29T18:09:07;2.45;;;0.77;;
39822;SDS011;25499;53.958;10.970;2023-05-29T18:11:35;2.33;;;0.63;;
39822;SDS011;25499;53.958;10.970;2023-05-29T18:14:03;2.55;;;0.88;;
39822;SDS011;25499;53.958;10.970;2023-05-29T18:16:33;3.47;;;1.20;;
39822;SDS011;25499;53.958;10.970;2023-05-29T18:19:00;2.95;;;1.27;;
39822;SDS011;25499;53.958;10.970;2023-05-29T18:21:29;3.78;;;1.20;;
39822;SDS011;25499;53.958;10.970;2023-05-29T18:23:56;2.55;;;0.82;;
39822;SDS011;25499;53.958;10.970;2023-05-29T18:26:23;1.85;;;0.90;;
39822;SDS011;25499;53.958;10.970;2023-05-29T18:28:50;3.72;;;1.25;;
39822;SDS011;25499;53.958;10.970;2023-05-29T18:31:17;2.63;;;0.82;;
39822;SDS011;25499;53.958;10.970;2023-05-29T18:33:45;2.60;;;1.02;;
39822;SDS011;25499;53.958;10.970;2023-05-29T18:36:12;3.80;;;1.00;;
39822;SDS011;25499;53.958;10.970;2023-05-29T18:38:41;4.82;;;0.93;;
39822;SDS011;25499;53.958;10.970;2023-05-29T18:41:07;2.95;;;1.08;;
39822;SDS011;25499;53.958;10.970;2023-05-29T18:43:35;3.25;;;1.10;;
39822;SDS011;25499;53.958;10.970;2023-05-29T18:46:02;3.38;;;1.00;;
39822;SDS011;25499;53.958;10.970;2023-05-29T18:48:31;5.55;;;1.05;;
39822;SDS011;25499;53.958;10.970;2023-05-29T18:50:58;2.83;;;0.80;;
39822;SDS011;25499;53.958;10.970;2023-05-29T18:53:26;5.93;;;1.00;;
39822;SDS011;25499;53.958;10.970;2023-05-29T18:55:54;2.63;;;1.20;;
39822;SDS011;25499;53.958;10.970;2023-05-29T18:58:21;4.40;;;1.00;;
39822;SDS011;25499;53.958;10.970;2023-05-29T19:00:47;1.70;;;0.90;;
39822;SDS011;25499;53.958;10.970;2023-05-29T19:03:16;2.47;;;1.00;;
39822;SDS011;25499;53.958;10.970;2023-05-29T19:05:43;2.92;;;1.10;;
39822;SDS011;25499;53.958;10.970;2023-05-29T19:08:09;3.95;;;1.00;;
39822;SDS011;25499;53.958;10.970;2023-05-29T19:10:36;2.88;;;1.00;;
39822;SDS011;25499;53.958;10.970;2023-05-29T19:13:07;2.78;;;1.10;;
39822;SDS011;25499;53.958;10.970;2023-05-29T19:15:34;3.90;;;0.85;;
39822;SDS011;25499;53.958;10.970;2023-05-29T19:18:01;2.42;;;0.98;;
39822;SDS011;25499;53.958;10.970;2023-05-29T19:20:30;3.53;;;0.90;;
39822;SDS011;25499;53.958;10.970;2023-05-29T19:22:57;5.95;;;1.10;;
39822;SDS011;25499;53.958;10.970;2023-05-29T19:25:24;1.83;;;1.13;;
39822;SDS011;25499;53.958;10.970;2023-05-29T19:27:51;3.63;;;1.20;;
39822;SDS011;25499;53.958;10.970;2023-05-29T19:30:20;3.03;;;1.00;;
39822;SDS011;25499;53.958;10.970;2023-05-29T19:32:47;2.25;;;1.20;;
39822;SDS011;25499;53.958;10.970;2023-05-29T19:35:13;2.05;;;1.10;;
39822;SDS011;25499;53.958;10.970;2023-05-29T19:37:41;3.85;;;1.08;;
39822;SDS011;25499;53.958;10.970;2023-05-29T19:40:09;2.58;;;1.10;;
39822;SDS011;25499;53.958;10.970;2023-05-29T19:42:36;3.20;;;1.30;;
39822;SDS011;25499;53.958;10.970;2023-05-29T19:45:04;2.45;;;1.20;;
39822;SDS011;25499;53.958;10.970;2023-05-29T19:47:36;3.40;;;1.23;;
39822;SDS011;25499;53.958;10.970;2023-05-29T19:50:02;1.98;;;1.20;;
39822;SDS011;25499;53.958;10.970;2023-05-29T19:55:09;2.47;;;1.15;;
39822;SDS011;25499;53.958;10.970;2023-05-29T19:57:36;2.67;;;1.05;;
39822;SDS011;25499;53.958;10.970;2023-05-29T20:00:03;3.42;;;1.30;;
39822;SDS011;25499;53.958;10.970;2023-05-29T20:02:33;2.42;;;1.38;;
39822;SDS011;25499;53.958;10.970;2023-05-29T20:05:02;3.33;;;1.20;;
39822;SDS011;25499;53.958;10.970;2023-05-29T20:07:29;3.38;;;1.30;;
39822;SDS011;25499;53.958;10.970;2023-05-29T20:09:56;2.72;;;1.40;;
39822;SDS011;25499;53.958;10.970;2023-05-29T20:12:23;3.45;;;1.27;;
39822;SDS011;25499;53.958;10.970;2023-05-29T20:14:50;4.15;;;1.30;;
39822;SDS011;25499;53.958;10.970;2023-05-29T20:17:18;3.05;;;1.02;;
39822;SDS011;25499;53.958;10.970;2023-05-29T20:19:48;2.83;;;1.38;;
39822;SDS011;25499;53.958;10.970;2023-05-29T20:22:17;2.50;;;1.08;;
39822;SDS011;25499;53.958;10.970;2023-05-29T20:24:44;2.40;;;1.10;;
39822;SDS011;25499;53.958;10.970;2023-05-29T20:27:16;2.72;;;1.00;;
39822;SDS011;25499;53.958;10.970;2023-05-29T20:29:43;3.78;;;1.02;;
39822;SDS011;25499;53.958;10.970;2023-05-29T20:32:10;3.60;;;1.25;;
39822;SDS011;25499;53.958;10.970;2023-05-29T20:34:37;3.88;;;1.00;;
39822;SDS011;25499;53.958;10.970;2023-05-29T20:37:04;3.67;;;1.13;;
39822;SDS011;25499;53.958;10.970;2023-05-29T20:39:33;2.25;;;0.90;;
39822;SDS011;25499;53.958;10.970;2023-05-29T20:42:00;5.03;;;1.10;;
39822;SDS011;25499;53.958;10.970;2023-05-29T20:44:29;2.67;;;1.00;;
39822;SDS011;25499;53.958;10.970;2023-05-29T20:46:56;2.85;;;1.13;;
39822;SDS011;25499;53.958;10.970;2023-05-29T20:49:24;2.63;;;1.20;;
39822;SDS011;25499;53.958;10.970;2023-05-29T20:51:51;4.13;;;1.00;;
